Time;durP1;ratioP1;P1;durP2;ratioP2;P2;SDS_P1;SDS_P2;PMS_P1;PMS_P2;Temp;Humidity;BMP_temperature;BMP_pressure;BME280_temperature;BME280_humidity;BME280_pressure;Samples;Min_cycle;Max_cycle;Signal;HPM_P1;HPM_P2
2021/11/02 00:00:42;;;;;;;;;;;;;;;15.02;75.41;99564.88;1050295;28;1341;-62
2021/11/02 00:01:33;;;;;;;;;;;;;;;15.03;75.06;99566.56;1047650;28;1910;-62
2021/11/02 00:02:24;;;;;;;;;;;;;;;15.02;75.57;99567.56;1049642;28;1437;-62
2021/11/02 00:03:14;;;;;;;;;;;;;;;15.02;75.54;99567.56;1049782;28;1427;-62
2021/11/02 00:04:05;;;;;;;;;;;;;;;15.02;75.11;99562.19;1045779;28;1412;-62
2021/11/02 00:04:55;;;;;;;;;;;;;;;15.02;75.60;99566.72;1046466;28;1370;-62
2021/11/02 00:05:46;;;;;;;;;;;;;;;15.02;75.58;99567.56;1050053;28;1294;-62
2021/11/02 00:06:36;;;;;;;;;;;;;;;15.02;75.65;99569.38;1047905;28;1480;-62
2021/11/02 00:07:26;;;;;;;;;;;;;;;15.02;75.66;99566.72;1049036;28;1455;-61
2021/11/02 00:08:17;;;;;;;;;;;;;;;15.01;75.43;99565.03;1049657;28;1595;-61
2021/11/02 00:09:08;;;;;;;;;;;;;;;15.02;75.71;99569.38;1049831;28;1385;-62
2021/11/02 00:10:00;;;;;;;;;;;;;;;15.01;75.75;99562.34;1050491;28;1537;-61
2021/11/02 00:10:51;;;;;;;;;;;;;;;15.01;75.59;99557.81;1048724;28;1441;-62
2021/11/02 00:11:41;;;;;;;;;;;;;;;15.00;75.36;99556.13;1049339;28;1915;-63
2021/11/02 00:12:32;;;;;;;;;;;;;;;15.00;76.11;99555.28;1049639;28;1625;-62
2021/11/02 00:13:25;;;;;;;;;;;;;;;15.01;75.42;99556.97;1049158;28;1459;-62
2021/11/02 00:14:16;;;;;;;;;;;;;;;15.00;75.74;99555.28;1048167;28;1479;-61
2021/11/02 00:15:06;;;;;;;;;;;;;;;15.00;75.46;99552.59;1049521;28;1419;-61
2021/11/02 00:15:58;;;;;;;;;;;;;;;15.00;75.82;99552.59;1048478;28;1369;-61
2021/11/02 00:16:55;;;;;;;;;;;;;;;15.00;75.46;99558.81;1050181;28;1594;-61
2021/11/02 00:17:48;;;;;;;;;;;;;;;14.99;76.01;99553.59;1050065;28;1494;-62
2021/11/02 00:18:43;;;;;;;;;;;;;;;15.00;75.92;99553.44;1047794;28;1389;-62
2021/11/02 00:19:34;;;;;;;;;;;;;;;15.00;75.83;99552.59;1048337;28;1416;-62
2021/11/02 00:20:24;;;;;;;;;;;;;;;14.99;75.56;99559.81;1049338;28;1701;-61
2021/11/02 00:21:16;;;;;;;;;;;;;;;14.99;75.83;99556.28;1048156;28;1545;-60
2021/11/02 00:22:15;;;;;;;;;;;;;;;14.99;75.78;99553.59;1050312;28;1593;-60
2021/11/02 00:23:08;;;;;;;;;;;;;;;14.99;75.53;99558.97;1049163;28;1591;-62
2021/11/02 00:24:09;;;;;;;;;;;;;;;14.99;75.52;99550.94;1047656;28;1513;-62
2021/11/02 00:25:04;;;;;;;;;;;;;;;14.99;75.86;99557.13;1049518;28;1559;-62
2021/11/02 00:25:54;;;;;;;;;;;;;;;14.99;75.37;99557.13;1048789;28;1523;-61
2021/11/02 00:26:45;;;;;;;;;;;;;;;14.99;75.85;99551.75;1049046;28;1542;-61
2021/11/02 00:27:35;;;;;;;;;;;;;;;14.99;75.69;99553.59;1047668;28;1408;-60
2021/11/02 00:28:26;;;;;;;;;;;;;;;15.01;75.39;99559.66;1049592;28;1628;-61
2021/11/02 00:29:16;;;;;;;;;;;;;;;14.99;76.24;99556.28;1048328;28;1505;-61
2021/11/02 00:30:07;;;;;;;;;;;;;;;15.00;75.37;99563.34;1049153;28;1564;-61
2021/11/02 00:30:57;;;;;;;;;;;;;;;14.99;75.55;99558.97;1048365;28;1459;-62
2021/11/02 00:31:48;;;;;;;;;;;;;;;14.99;75.39;99556.28;1049199;28;1649;-62
2021/11/02 00:32:38;;;;;;;;;;;;;;;14.98;75.41;99555.44;1050928;28;1614;-61
2021/11/02 00:33:28;;;;;;;;;;;;;;;14.99;75.65;99558.97;1049638;28;1574;-63
2021/11/02 00:34:19;;;;;;;;;;;;;;;14.98;75.36;99551.91;1048285;28;1448;-62
2021/11/02 00:35:12;;;;;;;;;;;;;;;14.99;75.86;99553.59;1049768;28;1594;-61
2021/11/02 00:36:03;;;;;;;;;;;;;;;14.98;75.54;99549.25;1044302;28;1533;-62
2021/11/02 00:36:53;;;;;;;;;;;;;;;14.98;75.71;99554.59;1044740;28;1428;-61
2021/11/02 00:37:44;;;;;;;;;;;;;;;14.99;75.65;99556.28;1050077;28;1562;-61
2021/11/02 00:38:34;;;;;;;;;;;;;;;14.98;75.61;99554.59;1047632;28;1649;-61
2021/11/02 00:39:25;;;;;;;;;;;;;;;14.97;75.93;99551.09;1046738;28;1404;-61
2021/11/02 00:40:15;;;;;;;;;;;;;;;14.97;75.51;99552.91;1046058;28;855;-61
2021/11/02 00:41:05;;;;;;;;;;;;;;;14.97;75.92;99552.91;1047456;28;1542;-61
2021/11/02 00:41:56;;;;;;;;;;;;;;;14.97;75.81;99556.44;1047670;28;1906;-62
2021/11/02 00:43:05;;;;;;;;;;;;;;;14.97;75.51;99550.25;1049135;28;1672;-61
2021/11/02 00:43:56;;;;;;;;;;;;;;;14.96;75.95;99552.06;1047745;28;1443;-61
2021/11/02 00:44:55;;;;;;;;;;;;;;;14.96;75.80;99552.06;1050946;28;1470;-62
2021/11/02 00:45:46;;;;;;;;;;;;;;;14.96;75.60;99551.25;1050905;28;1653;-62
2021/11/02 00:46:36;;;;;;;;;;;;;;;14.95;76.09;99545.03;1048403;28;1391;-63
2021/11/02 00:47:27;;;;;;;;;;;;;;;14.94;75.47;99541.50;1046898;28;1550;-62
2021/11/02 00:48:24;;;;;;;;;;;;;;;14.95;76.03;99545.03;1047492;28;1575;-62
2021/11/02 00:49:18;;;;;;;;;;;;;;;14.95;75.78;99545.03;1049231;28;1564;-62
2021/11/02 00:50:11;;;;;;;;;;;;;;;14.94;75.94;99544.19;1050825;28;1572;-61
2021/11/02 00:51:02;;;;;;;;;;;;;;;14.95;75.49;99550.41;1044825;28;992;-64
2021/11/02 00:51:52;;;;;;;;;;;;;;;14.96;75.33;99548.56;1046378;28;685;-64
2021/11/02 00:52:43;;;;;;;;;;;;;;;14.94;76.27;99548.72;1046261;28;810;-64
2021/11/02 00:53:33;;;;;;;;;;;;;;;14.93;75.75;99545.19;1046353;28;689;-63
2021/11/02 00:54:24;;;;;;;;;;;;;;;14.96;76.03;99535.13;1046056;28;870;-63
2021/11/02 00:55:14;;;;;;;;;;;;;;;14.94;75.65;99544.19;1046306;28;686;-64
2021/11/02 00:56:04;;;;;;;;;;;;;;;14.93;75.91;99544.34;1046379;28;693;-63
2021/11/02 00:56:55;;;;;;;;;;;;;;;14.92;76.30;99543.50;1046267;28;842;-63
2021/11/02 00:57:45;;;;;;;;;;;;;;;14.93;75.59;99545.19;1046292;28;791;-64
2021/11/02 00:58:36;;;;;;;;;;;;;;;14.92;75.64;99543.50;1046199;28;882;-64
2021/11/02 00:59:27;;;;;;;;;;;;;;;14.92;76.03;99538.13;1046284;28;692;-63
2021/11/02 01:00:17;;;;;;;;;;;;;;;14.92;76.06;99540.81;1046239;28;732;-64
2021/11/02 01:01:08;;;;;;;;;;;;;;;14.92;75.56;99546.19;1046328;28;975;-63
2021/11/02 01:01:58;;;;;;;;;;;;;;;14.92;75.41;99546.19;1046096;28;1878;-64
2021/11/02 01:02:48;;;;;;;;;;;;;;;14.90;76.07;99542.81;1046262;28;729;-63
2021/11/02 01:03:39;;;;;;;;;;;;;;;14.91;75.41;99541.81;1046221;28;689;-63
2021/11/02 01:04:29;;;;;;;;;;;;;;;14.91;75.90;99544.50;1046201;28;702;-63
2021/11/02 01:05:20;;;;;;;;;;;;;;;14.93;76.04;99541.66;1046251;28;980;-63
2021/11/02 01:06:10;;;;;;;;;;;;;;;14.91;76.08;99544.50;1046194;28;1465;-63
2021/11/02 01:07:00;;;;;;;;;;;;;;;14.91;76.26;99549.03;1046211;28;856;-63
2021/11/02 01:07:51;;;;;;;;;;;;;;;14.90;75.92;99542.81;1046295;28;777;-64
2021/11/02 01:08:41;;;;;;;;;;;;;;;14.91;75.92;99549.88;1046184;28;846;-64
2021/11/02 01:09:32;;;;;;;;;;;;;;;14.91;75.93;99547.19;1040718;28;663;-63
2021/11/02 01:10:22;;;;;;;;;;;;;;;14.90;75.85;99550.88;1045599;28;727;-63
2021/11/02 01:11:13;;;;;;;;;;;;;;;14.90;75.70;99548.19;1046140;28;827;-63
2021/11/02 01:12:03;;;;;;;;;;;;;;;14.90;75.75;99548.19;1046191;28;705;-63
2021/11/02 01:12:54;;;;;;;;;;;;;;;14.90;75.69;99544.66;1046308;28;766;-64
2021/11/02 01:13:44;;;;;;;;;;;;;;;14.90;75.64;99548.19;1046255;28;748;-64
2021/11/02 01:14:34;;;;;;;;;;;;;;;14.90;75.55;99548.19;1046351;28;834;-64
2021/11/02 01:15:25;;;;;;;;;;;;;;;14.89;75.93;99548.34;1046049;28;765;-63
2021/11/02 01:16:15;;;;;;;;;;;;;;;14.88;75.95;99549.34;1046286;28;775;-63
2021/11/02 01:17:06;;;;;;;;;;;;;;;14.89;75.96;99543.81;1046204;28;655;-64
2021/11/02 01:17:56;;;;;;;;;;;;;;;14.88;75.95;99544.81;1046310;28;786;-64
2021/11/02 01:18:47;;;;;;;;;;;;;;;14.89;76.10;99543.81;1046204;28;736;-64
2021/11/02 01:19:37;;;;;;;;;;;;;;;14.88;75.76;99539.44;1046083;28;797;-63
2021/11/02 01:20:28;;;;;;;;;;;;;;;14.90;76.02;99541.97;1046228;28;875;-64
2021/11/02 01:21:19;;;;;;;;;;;;;;;14.89;75.36;99557.22;1045985;28;1480;-63
2021/11/02 01:22:09;;;;;;;;;;;;;;;14.88;75.83;99543.97;1046183;28;709;-64
2021/11/02 01:22:59;;;;;;;;;;;;;;;14.87;75.51;99547.66;1046128;28;720;-63
2021/11/02 01:23:50;;;;;;;;;;;;;;;14.88;75.64;99550.19;1046034;28;815;-63
2021/11/02 01:24:41;;;;;;;;;;;;;;;14.87;75.38;99545.81;1046158;28;832;-63
2021/11/02 01:25:31;;;;;;;;;;;;;;;14.86;75.52;99544.16;1045605;28;676;-63
2021/11/02 01:26:21;;;;;;;;;;;;;;;14.88;75.95;99546.66;1045665;28;1486;-61
2021/11/02 01:27:12;;;;;;;;;;;;;;;14.87;75.51;99548.50;1050258;28;690;-61
2021/11/02 01:28:02;;;;;;;;;;;;;;;14.87;75.65;99548.50;1050533;28;861;-61
2021/11/02 01:28:53;;;;;;;;;;;;;;;14.87;75.24;99550.34;1050163;28;798;-60
2021/11/02 01:29:43;;;;;;;;;;;;;;;14.86;75.46;99546.84;1050761;28;661;-61
2021/11/02 01:30:33;;;;;;;;;;;;;;;14.87;75.31;99551.19;1050724;28;637;-61
2021/11/02 01:31:24;;;;;;;;;;;;;;;14.86;75.78;99552.22;1050853;28;674;-61
2021/11/02 01:32:14;;;;;;;;;;;;;;;14.87;75.60;99548.50;1050165;28;900;-61
2021/11/02 01:33:06;;;;;;;;;;;;;;;14.85;76.09;99545.16;1049098;28;649;-61
2021/11/02 01:33:56;;;;;;;;;;;;;;;14.86;75.93;99554.88;1049107;28;821;-61
2021/11/02 01:34:46;;;;;;;;;;;;;;;14.85;75.76;99545.16;1050752;28;718;-61
2021/11/02 01:35:37;;;;;;;;;;;;;;;14.85;75.45;99553.19;1049598;28;629;-61
2021/11/02 01:36:28;;;;;;;;;;;;;;;14.85;75.64;99552.34;1049501;28;936;-61
2021/11/02 01:37:19;;;;;;;;;;;;;;;14.85;76.14;99541.63;1049720;28;831;-61
2021/11/02 01:38:10;;;;;;;;;;;;;;;14.84;75.83;99543.47;1049477;28;1222;-62
2021/11/02 01:39:01;;;;;;;;;;;;;;;14.84;75.34;99543.47;1049625;28;700;-62
2021/11/02 01:39:52;;;;;;;;;;;;;;;14.84;75.85;99554.19;1045471;28;727;-62
2021/11/02 01:40:42;;;;;;;;;;;;;;;14.84;75.41;99548.84;1049596;28;799;-62
2021/11/02 01:41:33;;;;;;;;;;;;;;;14.85;75.16;99550.53;1049565;28;739;-62
2021/11/02 01:42:25;;;;;;;;;;;;;;;14.84;75.53;99538.09;1050229;28;747;-62
2021/11/02 01:43:15;;;;;;;;;;;;;;;14.85;75.52;99547.00;1050129;28;667;-61
2021/11/02 01:44:06;;;;;;;;;;;;;;;14.84;75.77;99553.34;1049599;28;673;-61
2021/11/02 01:44:59;;;;;;;;;;;;;;;14.83;75.53;99544.47;1050203;28;820;-61
2021/11/02 01:45:49;;;;;;;;;;;;;;;14.84;75.33;99543.47;1049582;28;712;-61
2021/11/02 01:46:43;;;;;;;;;;;;;;;14.82;76.09;99542.78;1046500;28;1609;-61
2021/11/02 01:47:34;;;;;;;;;;;;;;;14.83;75.63;99539.09;1045619;28;700;-61
2021/11/02 01:48:24;;;;;;;;;;;;;;;14.83;76.13;99547.16;1049184;28;759;-61
2021/11/02 01:49:17;;;;;;;;;;;;;;;14.82;75.50;99547.31;1049672;28;663;-62
2021/11/02 01:50:07;;;;;;;;;;;;;;;14.83;75.53;99541.78;1050021;28;624;-62
2021/11/02 01:50:59;;;;;;;;;;;;;;;14.83;75.87;99530.22;1049388;28;872;-62
2021/11/02 01:51:49;;;;;;;;;;;;;;;14.82;75.48;99540.09;1049565;28;802;-62
2021/11/02 01:52:40;;;;;;;;;;;;;;;14.82;75.74;99542.78;1049603;28;784;-62
2021/11/02 01:53:34;;;;;;;;;;;;;;;14.82;76.00;99542.78;1049736;28;1273;-62
2021/11/02 01:54:24;;;;;;;;;;;;;;;14.82;75.75;99536.56;1049683;28;719;-61
2021/11/02 01:55:15;;;;;;;;;;;;;;;14.81;75.53;99538.41;1050666;28;839;-61
2021/11/02 01:56:05;;;;;;;;;;;;;;;14.80;75.93;99531.38;1049646;28;737;-60
2021/11/02 01:56:56;;;;;;;;;;;;;;;14.82;75.42;99536.56;1049597;28;810;-61
2021/11/02 01:57:46;;;;;;;;;;;;;;;14.83;75.14;99536.44;1049595;28;731;-61
2021/11/02 01:58:37;;;;;;;;;;;;;;;14.82;75.44;99537.41;1049395;28;656;-61
2021/11/02 01:59:29;;;;;;;;;;;;;;;14.82;75.96;99526.69;1049463;28;872;-62
2021/11/02 02:00:20;;;;;;;;;;;;;;;14.82;75.56;99529.38;1049488;28;713;-62
2021/11/02 02:01:10;;;;;;;;;;;;;;;14.81;75.67;99530.38;1049634;28;909;-62
2021/11/02 02:02:01;;;;;;;;;;;;;;;14.80;75.44;99531.38;1049403;28;1982;-61
2021/11/02 02:02:52;;;;;;;;;;;;;;;14.80;76.19;99522.47;1049618;28;781;-61
2021/11/02 02:03:42;;;;;;;;;;;;;;;14.79;75.41;99528.84;1049627;28;1154;-62
2021/11/02 02:04:33;;;;;;;;;;;;;;;14.79;75.37;99524.31;1049503;28;797;-62
2021/11/02 02:05:23;;;;;;;;;;;;;;;14.79;75.85;99524.31;1049348;28;882;-62
2021/11/02 02:06:14;;;;;;;;;;;;;;;14.79;75.46;99528.84;1049027;28;1077;-61
2021/11/02 02:07:04;;;;;;;;;;;;;;;14.79;75.85;99521.66;1049504;28;653;-61
2021/11/02 02:07:55;;;;;;;;;;;;;;;14.79;75.83;99529.69;1049360;28;761;-62
2021/11/02 02:08:45;;;;;;;;;;;;;;;14.79;75.51;99524.31;1049559;28;741;-62
2021/11/02 02:09:35;;;;;;;;;;;;;;;14.79;75.51;99532.38;1049407;28;760;-62
2021/11/02 02:10:26;;;;;;;;;;;;;;;14.79;75.83;99523.47;1049395;28;683;-60
2021/11/02 02:11:16;;;;;;;;;;;;;;;14.79;75.68;99524.31;1049939;28;727;-60
2021/11/02 02:12:07;;;;;;;;;;;;;;;14.78;76.12;99527.16;1049405;28;715;-60
2021/11/02 02:12:58;;;;;;;;;;;;;;;14.79;76.06;99531.53;1049506;28;822;-61
2021/11/02 02:13:49;;;;;;;;;;;;;;;14.79;75.92;99528.84;1050611;28;780;-61
2021/11/02 02:14:39;;;;;;;;;;;;;;;14.79;75.43;99531.53;1049536;28;759;-61
2021/11/02 02:15:30;;;;;;;;;;;;;;;14.78;75.17;99525.31;1049479;28;659;-61
2021/11/02 02:16:20;;;;;;;;;;;;;;;14.78;75.33;99527.16;1049447;28;781;-61
2021/11/02 02:17:10;;;;;;;;;;;;;;;14.77;75.73;99529.00;1049511;28;633;-61
2021/11/02 02:18:01;;;;;;;;;;;;;;;14.78;75.68;99530.69;1049360;28;827;-62
2021/11/02 02:18:51;;;;;;;;;;;;;;;14.78;75.40;99530.69;1050221;28;767;-62
2021/11/02 02:19:43;;;;;;;;;;;;;;;14.79;75.74;99524.31;1049992;28;747;-62
2021/11/02 02:20:34;;;;;;;;;;;;;;;14.77;75.25;99520.97;1049118;28;814;-61
2021/11/02 02:21:25;;;;;;;;;;;;;;;14.76;76.08;99530.00;1048595;28;1203;-62
2021/11/02 02:22:15;;;;;;;;;;;;;;;14.76;76.02;99524.63;1048929;28;766;-61
2021/11/02 02:23:06;;;;;;;;;;;;;;;14.76;75.57;99523.78;1049093;28;645;-61
2021/11/02 02:23:56;;;;;;;;;;;;;;;14.77;75.85;99523.63;1048920;28;799;-61
2021/11/02 02:24:47;;;;;;;;;;;;;;;14.76;75.48;99527.31;1048879;28;704;-62
2021/11/02 02:25:37;;;;;;;;;;;;;;;14.76;75.66;99526.47;1048968;28;647;-62
2021/11/02 02:26:28;;;;;;;;;;;;;;;14.77;75.93;99522.78;1049991;28;1539;-62
2021/11/02 02:27:19;;;;;;;;;;;;;;;14.75;75.70;99517.59;1050621;28;624;-62
2021/11/02 02:28:10;;;;;;;;;;;;;;;14.76;75.95;99524.63;1050102;28;707;-62
2021/11/02 02:29:03;;;;;;;;;;;;;;;14.75;75.88;99517.59;1050085;28;729;-62
2021/11/02 02:29:53;;;;;;;;;;;;;;;14.74;76.09;99515.91;1049995;28;756;-62
2021/11/02 02:30:43;;;;;;;;;;;;;;;14.73;75.53;99522.25;1050436;28;867;-62
2021/11/02 02:31:34;;;;;;;;;;;;;;;14.74;76.05;99518.59;1049459;28;800;-63
2021/11/02 02:32:24;;;;;;;;;;;;;;;14.74;75.30;99515.91;1050588;28;913;-62
2021/11/02 02:33:15;;;;;;;;;;;;;;;14.73;75.52;99519.59;1050049;28;719;-62
2021/11/02 02:34:11;;;;;;;;;;;;;;;14.74;75.83;99520.44;1049041;28;720;-62
2021/11/02 02:35:03;;;;;;;;;;;;;;;14.74;75.91;99510.53;1049297;28;947;-62
2021/11/02 02:35:53;;;;;;;;;;;;;;;14.74;75.87;99513.22;1050100;28;752;-62
2021/11/02 02:36:44;;;;;;;;;;;;;;;14.72;75.82;99512.53;1049836;28;775;-61
2021/11/02 02:37:34;;;;;;;;;;;;;;;14.73;75.92;99508.00;1049988;28;812;-60
2021/11/02 02:38:25;;;;;;;;;;;;;;;14.72;75.88;99506.34;1048139;28;649;-60
2021/11/02 02:39:15;;;;;;;;;;;;;;;14.72;75.39;99514.38;1049997;28;751;-60
2021/11/02 02:40:06;;;;;;;;;;;;;;;14.72;75.38;99515.22;1048792;28;673;-60
2021/11/02 02:40:56;;;;;;;;;;;;;;;14.73;75.77;99511.53;1048809;28;811;-61
2021/11/02 02:41:47;;;;;;;;;;;;;;;14.72;75.53;99515.22;1048921;28;1964;-61
2021/11/02 02:42:38;;;;;;;;;;;;;;;14.73;75.83;99508.00;1049972;28;649;-61
2021/11/02 02:43:28;;;;;;;;;;;;;;;14.71;75.99;99516.22;1048839;28;723;-61
2021/11/02 02:44:18;;;;;;;;;;;;;;;14.72;75.54;99511.69;1050054;28;665;-61
2021/11/02 02:45:09;;;;;;;;;;;;;;;14.71;75.48;99516.22;1049283;28;842;-61
2021/11/02 02:46:00;;;;;;;;;;;;;;;14.71;75.91;99515.38;1049546;28;622;-61
2021/11/02 02:46:50;;;;;;;;;;;;;;;14.71;75.29;99510.00;1044086;28;776;-61
2021/11/02 02:47:41;;;;;;;;;;;;;;;14.71;75.32;99513.53;1045793;28;708;-60
2021/11/02 02:48:31;;;;;;;;;;;;;;;14.71;75.82;99505.50;1049883;28;759;-61
2021/11/02 02:49:21;;;;;;;;;;;;;;;14.73;75.14;99514.22;1049422;28;707;-61
2021/11/02 02:50:12;;;;;;;;;;;;;;;14.72;75.34;99514.38;1048852;28;705;-61
2021/11/02 02:51:02;;;;;;;;;;;;;;;14.71;75.31;99508.16;1048875;28;992;-60
2021/11/02 02:51:53;;;;;;;;;;;;;;;14.71;75.45;99510.84;1048798;28;700;-60
2021/11/02 02:52:43;;;;;;;;;;;;;;;14.71;75.77;99508.16;1048953;28;743;-60
2021/11/02 02:53:34;;;;;;;;;;;;;;;14.70;75.88;99509.16;1048900;28;875;-61
2021/11/02 02:54:24;;;;;;;;;;;;;;;14.69;75.14;99507.50;1048853;28;625;-61
2021/11/02 02:55:15;;;;;;;;;;;;;;;14.70;75.77;99509.16;1048975;28;669;-61
2021/11/02 02:56:06;;;;;;;;;;;;;;;14.70;75.74;99508.31;1048784;28;763;-60
2021/11/02 02:56:57;;;;;;;;;;;;;;;14.71;75.31;99510.00;1049044;28;806;-60
2021/11/02 02:57:47;;;;;;;;;;;;;;;14.71;75.47;99513.53;1048805;28;876;-60
2021/11/02 02:58:37;;;;;;;;;;;;;;;14.70;75.49;99509.16;1048871;28;814;-61
2021/11/02 02:59:28;;;;;;;;;;;;;;;14.71;75.13;99510.00;1048915;28;862;-61
2021/11/02 03:00:18;;;;;;;;;;;;;;;14.69;75.41;99504.81;1049500;28;820;-60
2021/11/02 03:01:09;;;;;;;;;;;;;;;14.70;75.36;99509.16;1048722;28;835;-60
2021/11/02 03:02:00;;;;;;;;;;;;;;;14.69;75.68;99512.84;1048751;28;1882;-62
2021/11/02 03:02:50;;;;;;;;;;;;;;;14.69;75.90;99509.34;1049346;28;720;-62
2021/11/02 03:03:40;;;;;;;;;;;;;;;14.69;75.93;99510.16;1048865;28;803;-62
2021/11/02 03:04:34;;;;;;;;;;;;;;;14.69;75.71;99506.69;1049306;28;942;-62
2021/11/02 03:05:24;;;;;;;;;;;;;;;14.69;75.59;99512.84;1049979;28;673;-62
2021/11/02 03:06:15;;;;;;;;;;;;;;;14.69;75.43;99510.16;1048758;28;1368;-62
2021/11/02 03:07:06;;;;;;;;;;;;;;;14.69;75.11;99507.50;1048699;28;680;-62
2021/11/02 03:07:56;;;;;;;;;;;;;;;14.69;75.74;99506.69;1048791;28;771;-62
2021/11/02 03:08:47;;;;;;;;;;;;;;;14.68;75.92;99513.88;1048606;28;746;-62
2021/11/02 03:09:37;;;;;;;;;;;;;;;14.68;75.90;99505.84;1048821;28;826;-62
2021/11/02 03:10:28;;;;;;;;;;;;;;;14.68;75.89;99503.16;1048870;28;885;-62
2021/11/02 03:11:19;;;;;;;;;;;;;;;14.68;75.23;99500.47;1049890;28;669;-62
2021/11/02 03:12:09;;;;;;;;;;;;;;;14.68;75.71;99500.47;1048723;28;930;-61
2021/11/02 03:12:59;;;;;;;;;;;;;;;14.67;75.37;99498.78;1048888;28;677;-62
2021/11/02 03:13:51;;;;;;;;;;;;;;;14.67;75.67;99501.47;1048768;28;728;-62
2021/11/02 03:14:53;;;;;;;;;;;;;;;14.67;75.88;99504.16;1048842;28;876;-61
2021/11/02 03:16:49;;;;;;;;;;;;;;;14.66;76.06;99499.78;1049723;28;850;-62
2021/11/02 03:17:40;;;;;;;;;;;;;;;14.65;75.92;99505.31;1048742;28;645;-61
2021/11/02 03:43:43;;;;;;;;;;;;;;;14.62;75.66;99517.19;1044961;28;942;-62
2021/11/02 03:44:57;;;;;;;;;;;;;;;14.61;75.89;99526.22;1045416;28;819;-62
2021/11/02 03:50:00;;;;;;;;;;;;;;;14.61;75.64;99523.53;1049049;28;812;-62
2021/11/02 03:55:24;;;;;;;;;;;;;;;14.59;75.81;99518.34;1049161;28;592;-62
2021/11/02 03:57:36;;;;;;;;;;;;;;;14.59;75.83;99517.50;1049411;28;834;-62
2021/11/02 03:58:46;;;;;;;;;;;;;;;14.60;75.68;99524.53;1049250;28;753;-62
2021/11/02 04:01:53;;;;;;;;;;;;;;;14.57;75.46;99527.53;1049238;28;632;-62
2021/11/02 04:23:18;;;;;;;;;;;;;;;14.55;75.63;99527.69;1049729;28;621;-61
2021/11/02 04:29:00;;;;;;;;;;;;;;;14.54;75.42;99531.34;1050277;28;850;-61
2021/11/02 05:10:10;;;;;;;;;;;;;;;14.46;75.34;99535.84;1050205;28;811;-61
2021/11/02 05:12:41;;;;;;;;;;;;;;;14.47;75.22;99535.69;1050597;28;1051;-62
2021/11/02 05:46:58;;;;;;;;;;;;;;;14.73;75.03;99546.41;1046021;28;1550;-63
2021/11/02 05:48:01;;;;;;;;;;;;;;;14.71;74.87;99543.03;1045306;28;741;-61
2021/11/02 05:51:06;;;;;;;;;;;;;;;14.75;75.74;99543.56;1048725;28;813;-62
2021/11/02 05:56:28;;;;;;;;;;;;;;;14.98;78.47;99549.25;1048477;28;1440;-62
2021/11/02 05:57:31;;;;;;;;;;;;;;;15.01;78.66;99547.09;1049958;28;1711;-61
2021/11/02 05:59:35;;;;;;;;;;;;;;;15.04;78.47;99548.63;1049166;28;1542;-63
2021/11/02 06:00:30;;;;;;;;;;;;;;;15.05;79.19;99555.66;1050451;28;691;-64
2021/11/02 06:04:31;;;;;;;;;;;;;;;15.07;79.18;99551.78;1050012;28;817;-63
2021/11/02 06:06:33;;;;;;;;;;;;;;;15.09;79.24;99551.63;1049906;28;1353;-63
2021/11/02 06:09:38;;;;;;;;;;;;;;;15.10;79.27;99548.78;1049933;28;1002;-63
2021/11/02 06:27:48;;;;;;;;;;;;;;;14.99;77.75;99543.72;1046321;28;1637;-63
2021/11/02 06:28:39;;;;;;;;;;;;;;;14.98;77.10;99538.50;1049765;28;1508;-62
2021/11/02 06:29:31;;;;;;;;;;;;;;;14.97;77.24;99539.50;1049352;28;1465;-62
2021/11/02 06:30:47;;;;;;;;;;;;;;;14.93;76.42;99542.50;1047422;28;1486;-63
2021/11/02 06:31:40;;;;;;;;;;;;;;;14.92;77.71;99543.50;1049878;28;1499;-62
2021/11/02 06:32:33;;;;;;;;;;;;;;;14.92;77.28;99539.97;1049850;28;1509;-63
2021/11/02 06:34:23;;;;;;;;;;;;;;;14.89;77.21;99533.09;1049931;28;1492;-63
2021/11/02 06:35:20;;;;;;;;;;;;;;;14.85;76.38;99531.75;1049858;28;1417;-63
2021/11/02 06:54:24;;;;;;;;;;;;;;;14.72;77.17;99554.59;1048959;28;1370;-63
2021/11/02 06:56:47;;;;;;;;;;;;;;;14.76;77.15;99562.19;1050393;28;1026;-63
2021/11/02 07:16:34;;;;;;;;;;;;;;;14.78;76.28;99568.22;1050480;28;837;-64
2021/11/02 07:18:33;;;;;;;;;;;;;;;14.77;76.36;99573.75;1049779;28;765;-64
2021/11/02 07:19:30;;;;;;;;;;;;;;;14.74;76.43;99564.19;1049253;28;682;-64
2021/11/02 07:21:22;;;;;;;;;;;;;;;14.71;76.76;99577.88;1049756;28;1420;-64
2021/11/02 07:23:35;;;;;;;;;;;;;;;14.68;76.46;99570.19;1049862;28;616;-64
2021/11/02 07:24:34;;;;;;;;;;;;;;;14.70;76.84;99575.38;1049850;28;728;-64
2021/11/02 07:26:30;;;;;;;;;;;;;;;14.71;76.58;99575.22;1049762;28;1303;-64
2021/11/02 07:28:41;;;;;;;;;;;;;;;14.70;76.88;99578.03;1049395;28;652;-64
2021/11/02 07:30:22;;;;;;;;;;;;;;;14.70;76.36;99581.56;1048896;28;1730;-64
2021/11/02 08:45:19;;;;;;;;;;;;;;;15.03;76.48;99588.00;1037753;28;856;-62
2021/11/02 08:46:21;;;;;;;;;;;;;;;15.06;76.34;99601.09;1041646;28;1429;-62
2021/11/02 08:47:14;;;;;;;;;;;;;;;15.05;75.98;99593.22;1044894;28;1168;-63
2021/11/02 08:48:04;;;;;;;;;;;;;;;15.03;76.07;99596.06;1049952;28;1546;-62
2021/11/02 08:48:56;;;;;;;;;;;;;;;15.04;76.32;99595.06;1050549;28;790;-62
2021/11/02 08:49:46;;;;;;;;;;;;;;;15.02;76.27;99593.53;1050528;28;728;-61
2021/11/02 08:50:41;;;;;;;;;;;;;;;15.02;76.03;99596.22;1050613;28;897;-62
2021/11/02 08:51:29;;;;;;;;;;;;;;;15.05;76.96;99598.59;1053910;28;1786;-61
2021/11/02 08:52:18;;;;;;;;;;;;;;;15.06;76.86;99595.72;1050379;28;806;-60
2021/11/02 08:53:07;;;;;;;;;;;;;;;15.08;77.17;99598.25;1050548;28;801;-61
2021/11/02 08:53:56;;;;;;;;;;;;;;;15.07;76.14;99593.88;1050463;28;1430;-61
2021/11/02 08:54:45;;;;;;;;;;;;;;;15.05;76.50;99593.22;1050292;28;1308;-61
2021/11/02 08:55:34;;;;;;;;;;;;;;;15.03;76.38;99592.53;1050215;28;1569;-61
2021/11/02 08:56:23;;;;;;;;;;;;;;;15.03;75.98;99597.91;1050356;28;1483;-61
2021/11/02 08:57:12;;;;;;;;;;;;;;;15.02;75.93;99593.53;1050538;28;734;-60
2021/11/02 08:58:01;;;;;;;;;;;;;;;14.99;75.42;99594.69;1050406;28;1654;-61
2021/11/02 08:58:49;;;;;;;;;;;;;;;15.00;75.54;99598.22;1050588;28;856;-61
2021/11/02 08:59:38;;;;;;;;;;;;;;;15.01;75.67;99590.00;1050430;28;1416;-62
2021/11/02 09:00:27;;;;;;;;;;;;;;;15.00;76.15;99591.00;1050481;28;884;-60
2021/11/02 09:01:18;;;;;;;;;;;;;;;15.04;76.24;99587.00;1050511;28;966;-64
2021/11/02 09:02:07;;;;;;;;;;;;;;;15.05;75.92;99583.31;1050472;28;1901;-61
2021/11/02 09:02:56;;;;;;;;;;;;;;;15.06;76.54;99593.03;1045810;28;1528;-61
2021/11/02 09:03:44;;;;;;;;;;;;;;;15.09;76.56;99594.56;1045892;28;1462;-61
2021/11/02 09:04:33;;;;;;;;;;;;;;;15.09;76.05;99595.41;1047687;28;1340;-62
2021/11/02 09:05:22;;;;;;;;;;;;;;;15.07;75.64;99586.66;1050358;28;1376;-60
2021/11/02 09:06:13;;;;;;;;;;;;;;;15.05;75.63;99591.34;1046254;28;794;-61
2021/11/02 09:07:01;;;;;;;;;;;;;;;15.01;75.27;99598.06;1046362;28;840;-62
2021/11/02 09:07:50;;;;;;;;;;;;;;;15.01;75.73;99591.84;1048389;28;1631;-62
2021/11/02 09:08:39;;;;;;;;;;;;;;;15.03;75.93;99595.22;1050450;28;742;-62
2021/11/02 09:09:28;;;;;;;;;;;;;;;15.02;76.39;99594.38;1050461;28;818;-62
2021/11/02 09:10:17;;;;;;;;;;;;;;;15.04;75.75;99597.75;1050425;28;817;-61
2021/11/02 09:11:06;;;;;;;;;;;;;;;15.00;75.96;99596.38;1050415;28;903;-61
2021/11/02 09:11:55;;;;;;;;;;;;;;;15.01;75.72;99595.38;1053132;28;1454;-62
2021/11/02 09:12:44;;;;;;;;;;;;;;;15.00;76.03;99596.38;1054692;28;758;-62
2021/11/02 09:13:33;;;;;;;;;;;;;;;15.02;76.00;99599.75;1054671;28;815;-62
2021/11/02 09:14:22;;;;;;;;;;;;;;;15.02;76.07;99589.00;1050416;28;1633;-62
2021/11/02 09:15:11;;;;;;;;;;;;;;;15.01;76.13;99592.69;1050035;28;834;-62
2021/11/02 09:15:59;;;;;;;;;;;;;;;15.02;76.38;99596.22;1050531;28;1404;-63
2021/11/02 09:16:48;;;;;;;;;;;;;;;15.02;76.71;99598.91;1050542;28;810;-61
2021/11/02 09:17:37;;;;;;;;;;;;;;;15.04;76.55;99596.91;1050325;28;1487;-63
2021/11/02 09:18:27;;;;;;;;;;;;;;;15.05;77.07;99601.28;1050487;28;827;-62
2021/11/02 09:19:16;;;;;;;;;;;;;;;15.06;76.70;99601.09;1050357;28;894;-62
2021/11/02 09:20:05;;;;;;;;;;;;;;;15.07;76.85;99601.94;1050434;28;767;-62
2021/11/02 09:20:53;;;;;;;;;;;;;;;15.05;76.77;99604.75;1050451;28;740;-61
2021/11/02 09:21:43;;;;;;;;;;;;;;;15.05;76.40;99607.44;1049371;28;1542;-60
2021/11/02 09:22:31;;;;;;;;;;;;;;;15.04;75.58;99602.28;1046392;28;819;-61
2021/11/02 09:23:20;;;;;;;;;;;;;;;15.01;75.19;99600.75;1046304;28;821;-61
2021/11/02 09:24:10;;;;;;;;;;;;;;;14.99;75.67;99608.09;1046091;28;748;-63